Time;durP1;ratioP1;P1;durP2;ratioP2;P2;SDS_P1;SDS_P2;PMS_P1;PMS_P2;Temp;Humidity;BMP_temperature;BMP_pressure;BME280_temperature;BME280_humidity;BME280_pressure;Samples;Min_cycle;Max_cycle;Signal;HPM_P1;HPM_P2
2021/06/26 00:01:06;;;;;;;;;4.00;4.00;;;;;18.20;66.76;101509.63;5002079;28;45467;-93
2021/06/26 00:03:32;;;;;;;;;5.00;4.00;;;;;18.20;66.44;101507.84;5001474;28;45289;-93
2021/06/26 00:05:58;;;;;;;;;6.75;6.75;;;;;18.20;66.86;101513.13;4982850;28;45347;-93
2021/06/26 00:08:25;;;;;;;;;4.50;4.00;;;;;18.19;66.92;101508.75;4982296;28;46975;-93
2021/06/26 00:10:51;;;;;;;;;5.00;5.00;;;;;18.20;66.75;101507.84;4982472;28;46053;-93
2021/06/26 00:13:18;;;;;;;;;6.00;6.00;;;;;18.19;67.08;101506.13;4982338;28;45448;-93
2021/06/26 00:15:45;;;;;;;;;5.25;5.00;;;;;18.20;66.96;101513.13;4995449;28;46740;-93
2021/06/26 00:18:10;;;;;;;;;5.00;4.00;;;;;18.19;66.75;101519.31;5018545;28;47462;-93
2021/06/26 00:20:36;;;;;;;;;5.00;5.00;;;;;18.17;66.99;101515.91;5002161;28;45589;-92
2021/06/26 00:23:02;;;;;;;;;6.33;6.33;;;;;18.19;66.51;101521.94;5002316;28;45454;-93
2021/06/26 00:25:27;;;;;;;;;5.00;5.00;;;;;18.16;67.05;101508.97;5018233;28;45282;-94
2021/06/26 00:27:55;;;;;;;;;6.00;6.00;;;;;18.20;67.18;101515.75;4997592;28;47958;-94
2021/06/26 00:30:21;;;;;;;;;6.00;5.00;;;;;18.20;66.84;101518.41;4982298;28;45507;-93
2021/06/26 00:32:47;;;;;;;;;7.00;7.00;;;;;18.16;66.96;101511.59;4981999;28;45542;-93
2021/06/26 00:35:13;;;;;;;;;6.75;6.75;;;;;18.21;67.27;101519.22;4982469;28;45488;-93
2021/06/26 00:37:40;;;;;;;;;6.25;6.25;;;;;18.20;66.77;101513.13;5000278;28;47416;-94
2021/06/26 00:40:08;;;;;;;;;6.25;5.00;;;;;18.20;66.57;101507.00;5001776;28;45314;-93
2021/06/26 00:42:35;;;;;;;;;7.00;6.75;;;;;18.20;67.15;101513.13;5001717;28;45370;-93
2021/06/26 00:45:00;;;;;;;;;6.75;6.00;;;;;18.22;67.15;101516.50;5002293;28;45448;-94
2021/06/26 00:47:26;;;;;;;;;5.50;5.50;;;;;18.22;67.03;101513.00;4997981;28;46889;-93
2021/06/26 00:49:52;;;;;;;;;9.25;7.00;;;;;18.18;67.25;101503.59;4981916;28;45472;-93
2021/06/26 00:52:18;;;;;;;;;8.75;6.75;;;;;18.20;67.16;101510.50;4982103;28;45494;-93
2021/06/26 00:54:44;;;;;;;;;6.00;6.00;;;;;18.19;67.32;101515.84;4981487;28;45630;-94
2021/06/26 00:57:12;;;;;;;;;5.75;5.25;;;;;18.21;67.25;101506.91;4981486;28;46536;-93
2021/06/26 00:59:46;;;;;;;;;5.75;4.25;;;;;18.21;66.70;101508.69;4981425;28;45296;-94
2021/06/26 01:02:12;;;;;;;;;4.25;4.00;;;;;18.21;67.21;101503.41;5020824;28;45219;-93
2021/06/26 01:04:37;;;;;;;;;5.00;5.00;;;;;18.21;67.02;101498.16;5021196;28;45641;-93
2021/06/26 01:07:06;;;;;;;;;8.00;7.00;;;;;18.19;67.35;101490.34;5021193;28;46730;-94
2021/06/26 01:09:32;;;;;;;;;7.00;7.00;;;;;18.21;66.84;101491.13;5003482;28;45367;-93
2021/06/26 01:11:58;;;;;;;;;9.00;6.25;;;;;18.18;67.08;101469.38;5001129;28;45375;-93
2021/06/26 01:14:30;;;;;;;;;6.25;6.25;;;;;18.21;67.16;101475.31;5001617;28;45353;-93
2021/06/26 01:17:05;;;;;;;;;6.75;6.00;;;;;18.20;67.26;101476.25;5001393;28;47056;-92
2021/06/26 01:19:31;;;;;;;;;7.00;6.00;;;;;18.21;67.08;101477.94;5000669;28;45629;-93
2021/06/26 01:21:59;;;;;;;;;5.50;5.00;;;;;18.18;67.58;101474.63;5001147;28;45445;-93
2021/06/26 01:24:24;;;;;;;;;8.00;5.75;;;;;18.20;66.96;101472.75;5001288;28;44857;-93
2021/06/26 01:26:57;;;;;;;;;7.00;7.00;;;;;18.19;67.05;101471.88;5000033;28;47205;-93
2021/06/26 01:29:24;;;;;;;;;6.00;6.00;;;;;18.19;66.98;101476.31;5000271;28;45713;-93
2021/06/26 01:31:49;;;;;;;;;6.75;5.50;;;;;18.19;67.25;101473.69;5000761;28;45365;-92
2021/06/26 01:34:15;;;;;;;;;6.25;6.25;;;;;18.20;67.28;101472.75;5001285;28;44888;-93
2021/06/26 01:36:40;;;;;;;;;5.67;5.67;;;;;18.18;67.16;101470.19;5000752;28;46842;-93
2021/06/26 01:39:06;;;;;;;;;7.25;6.00;;;;;18.16;66.88;101470.28;5001002;28;45294;-93
2021/06/26 01:41:34;;;;;;;;;6.00;6.00;;;;;18.17;66.80;101471.13;4996889;28;45720;-93
2021/06/26 01:44:01;;;;;;;;;6.00;6.00;;;;;18.16;66.82;101465.00;4981606;28;45277;-93
2021/06/26 01:46:27;;;;;;;;;6.50;6.25;;;;;18.14;66.81;101469.53;4999848;28;47132;-93
2021/06/26 01:48:55;;;;;;;;;6.00;4.00;;;;;18.12;66.86;101463.50;5000675;28;45565;-93
2021/06/26 01:51:21;;;;;;;;;7.00;5.67;;;;;18.14;66.76;101471.28;5000441;28;44686;-93
2021/06/26 01:53:46;;;;;;;;;7.00;5.00;;;;;18.09;66.88;101474.19;5000571;28;45623;-93
2021/06/26 01:56:12;;;;;;;;;4.25;4.00;;;;;18.09;66.87;101471.56;5016953;28;47217;-93
2021/06/26 01:58:40;;;;;;;;;5.00;5.00;;;;;18.08;67.01;101469.00;5000255;28;45381;-93
2021/06/26 02:01:05;;;;;;;;;6.50;5.00;;;;;18.08;67.04;101461.97;5001004;28;45381;-93
2021/06/26 02:03:33;;;;;;;;;5.50;5.50;;;;;18.05;67.05;101456.84;5000002;28;45455;-93
2021/06/26 02:05:59;;;;;;;;;6.00;5.00;;;;;18.08;67.38;101466.38;5000414;28;47574;-93
2021/06/26 02:08:24;;;;;;;;;5.50;5.50;;;;;18.05;67.38;101456.84;5000313;28;45375;-93
2021/06/26 02:10:49;;;;;;;;;7.00;7.00;;;;;18.09;67.06;101470.75;5000230;28;44796;-93
2021/06/26 02:13:15;;;;;;;;;7.33;7.33;;;;;18.04;67.65;101457.78;5000597;28;45706;-93
2021/06/26 02:15:40;;;;;;;;;6.00;6.00;;;;;18.08;67.38;101467.25;4999940;28;47179;-93
2021/06/26 02:18:06;;;;;;;;;9.00;7.00;;;;;18.07;67.14;101465.56;5000778;28;45188;-93
2021/06/26 02:20:31;;;;;;;;;6.00;6.00;;;;;18.04;67.30;101468.31;5000267;28;45335;-93
2021/06/26 02:22:57;;;;;;;;;5.00;5.00;;;;;18.06;67.33;101457.69;5000392;28;45410;-93
2021/06/26 02:25:22;;;;;;;;;6.00;5.00;;;;;18.07;67.41;101459.41;4999948;28;47099;-93
2021/06/26 02:27:48;;;;;;;;;8.75;6.00;;;;;18.04;67.69;101460.41;5000107;28;45244;-93
2021/06/26 02:30:17;;;;;;;;;7.75;5.25;;;;;18.05;67.87;101458.63;4999825;28;45448;-93
2021/06/26 02:32:45;;;;;;;;;6.00;6.00;;;;;18.06;67.23;101461.22;5000419;28;45508;-93
2021/06/26 02:35:11;;;;;;;;;7.50;6.25;;;;;18.06;67.08;101455.97;4999908;28;47689;-93
2021/06/26 02:37:38;;;;;;;;;7.75;7.75;;;;;18.07;67.50;101460.28;5018018;28;45234;-94
2021/06/26 02:40:04;;;;;;;;;6.25;5.75;;;;;18.07;67.34;101465.56;4999999;28;45257;-93
2021/06/26 02:42:30;;;;;;;;;8.50;6.75;;;;;18.07;67.32;101470.81;5000364;28;45472;-93
2021/06/26 02:44:55;;;;;;;;;7.00;6.00;;;;;18.07;67.33;101465.56;4999688;28;47129;-93
2021/06/26 02:47:22;;;;;;;;;7.50;7.50;;;;;18.04;67.50;101447.25;4999871;28;45476;-94
2021/06/26 02:49:47;;;;;;;;;8.75;6.75;;;;;18.07;67.18;101451.53;5000249;28;45398;-93
2021/06/26 02:52:15;;;;;;;;;8.00;7.00;;;;;18.07;67.61;101451.53;4999645;28;45487;-93
2021/06/26 02:54:40;;;;;;;;;9.25;8.50;;;;;18.07;67.85;101447.13;5002593;28;46837;-93
2021/06/26 02:57:06;;;;;;;;;10.75;9.00;;;;;18.03;67.66;101443.78;5003325;28;45262;-93
2021/06/26 02:59:31;;;;;;;;;8.00;8.00;;;;;18.06;67.97;101453.31;5003422;28;45531;-93
2021/06/26 03:01:57;;;;;;;;;8.50;7.25;;;;;18.05;67.86;101445.47;5003222;28;45227;-93
2021/06/26 03:04:22;;;;;;;;;9.25;8.50;;;;;18.05;67.33;101451.56;5002759;28;47266;-93
2021/06/26 03:06:48;;;;;;;;;8.00;8.00;;;;;18.06;67.50;101447.16;5003187;28;45580;-94
2021/06/26 03:09:14;;;;;;;;;11.00;8.50;;;;;18.04;67.54;101449.88;5003412;28;45195;-93
2021/06/26 03:11:39;;;;;;;;;11.75;11.25;;;;;18.02;67.40;101449.13;5020205;28;45470;-93
2021/06/26 03:14:05;;;;;;;;;10.75;8.75;;;;;18.02;67.52;101454.41;5016039;28;47094;-94
2021/06/26 03:16:30;;;;;;;;;11.00;9.00;;;;;18.04;67.65;101452.50;4982784;28;45476;-94
2021/06/26 03:19:00;;;;;;;;;8.50;8.50;;;;;18.04;67.48;101452.50;4983770;28;44773;-93
2021/06/26 03:21:26;;;;;;;;;10.25;9.50;;;;;18.04;67.64;101455.16;4983443;28;45418;-95
2021/06/26 03:23:51;;;;;;;;;7.75;7.75;;;;;18.05;67.73;101458.63;5031329;28;46542;-93
2021/06/26 03:26:17;;;;;;;;;12.75;9.50;;;;;18.02;67.84;101457.03;5022646;28;45302;-93
2021/06/26 03:28:45;;;;;;;;;9.75;9.75;;;;;18.05;67.45;101461.28;5023093;28;45244;-93
2021/06/26 03:31:13;;;;;;;;;9.50;9.25;;;;;18.03;67.98;101458.72;5022873;28;44997;-94
2021/06/26 03:33:39;;;;;;;;;9.25;9.25;;;;;18.01;67.67;101453.53;5021972;28;46931;-93
2021/06/26 03:36:08;;;;;;;;;12.00;8.75;;;;;18.05;67.56;101463.91;5022867;28;45591;-93
2021/06/26 03:38:33;;;;;;;;;11.50;10.75;;;;;18.03;68.12;101451.69;5022793;28;45420;-93
2021/06/26 03:41:01;;;;;;;;;10.25;8.75;;;;;18.03;68.09;101458.72;5022981;28;45491;-94
2021/06/26 03:43:31;;;;;;;;;9.25;9.25;;;;;18.00;67.96;101451.84;5023009;28;46197;-94
2021/06/26 03:46:01;;;;;;;;;12.00;10.00;;;;;17.99;67.69;101452.78;5000532;28;45471;-93
2021/06/26 03:48:27;;;;;;;;;9.75;8.75;;;;;18.02;67.61;101449.97;4983091;28;45402;-94
2021/06/26 03:50:53;;;;;;;;;14.75;12.00;;;;;18.02;67.84;101451.75;4983153;28;45346;-93
2021/06/26 03:53:18;;;;;;;;;12.25;10.75;;;;;18.02;67.85;101457.03;4998937;28;47607;-93
2021/06/26 03:55:51;;;;;;;;;9.50;9.00;;;;;18.01;67.93;101452.69;5000013;28;45401;-93
2021/06/26 03:58:21;;;;;;;;;10.25;10.25;;;;;18.02;67.73;101457.84;5019171;28;45360;-92
2021/06/26 04:00:47;;;;;;;;;9.50;9.50;;;;;18.00;68.27;101457.09;5002361;28;45336;-93
2021/06/26 04:03:12;;;;;;;;;11.00;10.50;;;;;18.01;67.73;101453.53;5018806;28;47183;-93
2021/06/26 04:05:38;;;;;;;;;11.50;10.75;;;;;18.01;67.82;101460.59;5016639;28;45528;-93
2021/06/26 04:08:07;;;;;;;;;8.00;7.75;;;;;18.01;67.96;101464.06;5018923;28;45235;-93
2021/06/26 04:10:33;;;;;;;;;10.75;9.50;;;;;17.99;67.99;101451.91;5002700;28;45558;-93
2021/06/26 04:13:01;;;;;;;;;10.75;10.25;;;;;18.00;67.96;101451.84;5001760;28;46915;-94
2021/06/26 04:15:26;;;;;;;;;13.75;10.25;;;;;18.00;67.99;101457.09;5018677;28;45316;-93
2021/06/26 04:17:51;;;;;;;;;10.25;9.00;;;;;17.97;68.32;101457.25;5018789;28;45266;-93
2021/06/26 04:20:17;;;;;;;;;10.50;10.50;;;;;17.98;68.10;101463.38;5002535;28;45299;-93
2021/06/26 04:22:45;;;;;;;;;10.50;9.25;;;;;18.02;68.08;101462.28;5002123;28;46977;-94
2021/06/26 04:25:14;;;;;;;;;12.00;10.00;;;;;18.00;67.77;101469.41;5001262;28;44951;-94
2021/06/26 04:27:40;;;;;;;;;8.75;7.50;;;;;17.96;67.95;101462.63;5011381;28;45415;-94
2021/06/26 04:30:06;;;;;;;;;7.00;7.00;;;;;17.97;68.34;101461.69;5008967;28;45327;-93
2021/06/26 04:32:34;;;;;;;;;9.00;7.00;;;;;17.98;68.09;101466.03;5001323;28;47223;-94
2021/06/26 04:34:59;;;;;;;;;6.00;6.00;;;;;17.94;68.08;101465.34;5002378;28;44748;-93
2021/06/26 04:37:27;;;;;;;;;7.50;6.50;;;;;17.95;68.22;101466.22;5001688;28;45478;-93
2021/06/26 04:39:52;;;;;;;;;7.50;6.00;;;;;17.95;67.68;101463.59;5002477;28;45474;-94
2021/06/26 04:42:26;;;;;;;;;5.00;5.00;;;;;17.95;68.07;101467.03;5001032;28;48209;-94
2021/06/26 04:44:54;;;;;;;;;5.00;5.00;;;;;17.94;68.18;101465.34;5001552;28;45672;-94
2021/06/26 04:47:22;;;;;;;;;7.25;7.25;;;;;17.93;68.11;101453.13;5001983;28;45473;-94
2021/06/26 04:50:09;;;;;;;;;5.00;5.00;;;;;17.93;67.91;101460.16;5015508;28;44926;-94
2021/06/26 04:52:38;;;;;;;;;5.50;5.50;;;;;17.90;67.91;101462.03;5018913;28;46251;-94
2021/06/26 04:55:07;;;;;;;;;4.00;3.33;;;;;17.93;68.05;101468.94;5001434;28;45408;-93
2021/06/26 04:57:33;;;;;;;;;6.00;5.00;;;;;17.92;67.71;101466.38;5001242;28;45448;-93
2021/06/26 05:00:01;;;;;;;;;5.50;4.00;;;;;17.91;67.94;101470.78;5001427;28;45651;-94
2021/06/26 05:02:29;;;;;;;;;4.00;4.00;;;;;17.90;67.91;101469.94;5001060;28;47370;-94
2021/06/26 05:04:55;;;;;;;;;5.50;3.00;;;;;17.90;67.59;101475.22;5017692;28;45001;-94
2021/06/26 05:07:30;;;;;;;;;;;;;;;;;;;;;
2021/06/26 05:10:07;;;;;;;;;2.00;2.00;;;;;17.87;67.80;101475.38;5017917;28;63832;-94
2021/06/26 05:12:35;;;;;;;;;7.25;4.25;;;;;17.86;67.97;101465.78;5001102;28;47622;-94
2021/06/26 05:15:02;;;;;;;;;5.00;4.00;;;;;17.86;67.89;101473.66;5001224;28;44823;-94
2021/06/26 05:17:32;;;;;;;;;4.00;4.00;;;;;17.85;68.29;101473.75;5000311;28;45520;-94
2021/06/26 05:20:17;;;;;;;;;;;;;;;;;;;;;
2021/06/26 05:22:49;;;;;;;;;5.67;5.67;;;;;17.84;68.28;101465.03;5017484;28;74157;-94
2021/06/26 05:25:22;;;;;;;;;4.33;4.33;;;;;17.84;68.19;101472.91;5000918;28;45562;-93
2021/06/26 05:27:50;;;;;;;;;5.00;5.00;;;;;17.86;68.22;101472.81;5001156;28;45456;-92
2021/06/26 05:30:15;;;;;;;;;5.00;5.00;;;;;17.83;67.89;101473.81;5001201;28;45390;-93
2021/06/26 05:32:49;;;;;;;;;6.00;6.00;;;;;17.86;68.12;101480.72;5000353;28;46671;-93
2021/06/26 05:35:20;;;;;;;;;5.25;5.25;;;;;17.82;67.90;101472.13;5000921;28;45354;-93
2021/06/26 05:37:55;;;;;;;;;4.25;4.25;;;;;17.87;67.96;101472.72;5001552;28;45454;-94
2021/06/26 05:40:23;;;;;;;;;5.00;5.00;;;;;17.88;68.33;101482.31;5000216;28;45348;-93
2021/06/26 05:42:49;;;;;;;;;6.00;4.00;;;;;17.90;68.30;101482.25;4997246;28;47107;-93
2021/06/26 05:45:22;;;;;;;;;5.00;5.00;;;;;17.87;68.58;101482.44;4997647;28;45429;-93
2021/06/26 05:47:53;;;;;;;;;4.75;4.75;;;;;17.87;68.31;101485.91;4980214;28;45559;-94
2021/06/26 05:50:27;;;;;;;;;3.33;3.33;;;;;17.88;68.30;101490.22;4981399;28;45582;-93
2021/06/26 05:53:29;;;;;;;;;4.00;4.00;;;;;17.86;68.42;101489.47;4988517;28;47623;-93
2021/06/26 05:59:29;;;;;;;;;5.00;5.00;;;;;17.86;68.06;101489.47;4865986;29;45775;-93
2021/06/26 06:02:10;;;;;;;;;4.00;3.75;;;;;17.89;68.00;101489.31;4846688;29;45649;-93
2021/06/26 06:04:47;;;;;;;;;5.50;5.00;;;;;17.87;68.50;101480.63;4862269;29;47442;-94
2021/06/26 06:07:27;;;;;;;;;;;;;;;;;;;;;
2021/06/26 06:10:34;;;;;;;;;;;;;;;;;;;;;
2021/06/26 06:13:13;;;;;;;;;4.00;4.00;;;;;17.92;68.03;101495.34;4842827;29;64502;-93
2021/06/26 06:15:49;;;;;;;;;3.00;3.00;;;;;17.89;68.30;101488.44;4843533;29;47055;-94
2021/06/26 06:19:11;;;;;;;;;5.50;4.75;;;;;17.91;68.26;101489.22;4843181;29;44813;-94
2021/06/26 06:22:10;;;;;;;;;;;;;;;;;;;;;
2021/06/26 06:25:06;;;;;;;;;5.25;5.00;;;;;17.95;68.64;101485.47;4805967;29;62225;-95
2021/06/26 06:27:49;;;;;;;;;6.75;5.00;;;;;17.96;68.41;101488.97;4788917;29;47024;-94
2021/06/26 06:31:13;;;;;;;;;;;;;;;;;;;;;
2021/06/26 06:34:04;;;;;;;;;4.00;4.00;;;;;17.94;68.36;101493.44;4790790;29;67282;-96
2021/06/26 06:37:31;;;;;;;;;;;;;;;;;;;;;
2021/06/26 06:39:57;;;;;;;;;4.00;4.00;;;;;17.96;68.48;101505.59;4865814;29;74887;-94
2021/06/26 06:43:17;;;;;;;;;6.75;3.75;;;;;17.96;68.78;101494.25;4863977;29;45466;-95
2021/06/26 06:45:59;;;;;;;;;4.25;4.25;;;;;17.97;68.51;101491.50;4866713;29;45201;-93
2021/06/26 06:52:13;;;;;;;;;;;;;;;;;;;;;
2021/06/26 06:55:30;;;;;;;;;;;;;;;;;;;;;
2021/06/26 07:29:14;;;;;;;;;;;;;;;;;;;;;
2021/06/26 07:32:45;;;;;;;;;;;;;;;;;;;;;
2021/06/26 07:35:16;;;;;;;;;5.00;5.00;;;;;18.22;68.81;101505.13;4789372;29;73364;-93
2021/06/26 07:38:23;;;;;;;;;;;;;;;;;;;;;
2021/06/26 07:41:11;;;;;;;;;6.00;6.00;;;;;18.15;68.15;101515.16;4833212;29;63616;-93
2021/06/26 07:44:24;;;;;;;;;;;;;;;;;;;;;
2021/06/26 07:47:05;;;;;;;;;8.75;7.75;;;;;18.10;68.76;101515.41;4900285;29;72769;-95
2021/06/26 07:49:59;;;;;;;;;7.00;7.00;;;;;18.09;68.40;101510.25;4901867;29;45555;-93
2021/06/26 07:52:59;;;;;;;;;;;;;;;;;;;;;
2021/06/26 07:56:09;;;;;;;;;10.00;7.25;;;;;18.01;68.25;101510.63;4915972;28;74193;-94
2021/06/26 07:58:42;;;;;;;;;8.25;7.00;;;;;18.01;68.82;101508.84;4861747;29;45485;-93
2021/06/26 08:01:24;;;;;;;;;8.50;7.50;;;;;18.06;68.49;101513.91;4865709;29;45346;-94
2021/06/26 08:03:58;;;;;;;;;6.25;6.00;;;;;18.09;68.44;101510.25;4867000;29;45751;-94
2021/06/26 08:06:27;;;;;;;;;4.75;4.75;;;;;18.10;69.15;101504.88;4863513;29;46691;-93
2021/06/26 08:09:00;;;;;;;;;10.25;7.00;;;;;18.12;68.92;101502.16;4882587;28;45257;-94
2021/06/26 08:15:07;;;;;;;;;;;;;;;;;;;;;
2021/06/26 08:18:01;;;;;;;;;6.00;6.00;;;;;18.26;68.76;101504.00;4956285;28;45577;-95
2021/06/26 08:21:50;;;;;;;;;;;;;;;;;;;;;
2021/06/26 08:24:15;;;;;;;;;7.00;7.00;;;;;18.28;68.33;101488.97;4939783;28;45649;-94
2021/06/26 08:27:06;;;;;;;;;6.25;6.25;;;;;18.29;68.21;101483.59;4917652;28;45712;-94
2021/06/26 08:30:13;;;;;;;;;7.25;7.00;;;;;18.29;68.39;101491.50;4904124;28;47048;-95
2021/06/26 08:32:50;;;;;;;;;6.75;6.25;;;;;18.35;68.67;101489.47;4916092;28;45317;-95
2021/06/26 08:35:38;;;;;;;;;7.50;6.25;;;;;18.36;68.71;101476.22;4973155;28;45474;-93
2021/06/26 08:38:16;;;;;;;;;6.00;5.75;;;;;18.41;68.79;101476.78;4984380;28;44888;-92
2021/06/26 08:40:47;;;;;;;;;10.50;8.00;;;;;18.48;68.53;101479.94;4998631;28;47734;-94
2021/06/26 08:43:23;;;;;;;;;7.75;7.75;;;;;18.53;68.92;101491.06;4999967;28;45454;-93
2021/06/26 08:49:26;;;;;;;;;8.50;7.00;;;;;18.58;68.53;101498.69;4934320;28;45509;-92
2021/06/26 08:52:17;;;;;;;;;7.00;7.00;;;;;18.58;68.12;101503.09;4898812;28;46717;-93
2021/06/26 08:55:06;;;;;;;;;6.75;6.75;;;;;18.53;68.27;101492.84;4913904;28;45892;-93
2021/06/26 09:11:58;;;;;;;;;;;;;;;;;;;;;
2021/06/26 09:50:56;;;;;;;;;6.00;6.00;;;;;20.44;66.41;101475.06;5973289;22;7709910;-94
2021/06/26 09:53:41;;;;;;;;;6.67;6.67;;;;;20.58;66.16;101479.41;6282929;22;45177;-94
2021/06/26 09:56:25;;;;;;;;;5.00;5.00;;;;;20.69;65.73;101479.53;6256570;22;45264;-94
2021/06/26 09:58:54;;;;;;;;;6.50;5.75;;;;;20.73;65.23;101487.28;6282265;22;45480;-94
2021/06/26 10:01:50;;;;;;;;;6.25;6.00;;;;;20.80;64.63;101491.19;6282100;22;47409;-95
2021/06/26 10:04:32;;;;;;;;;7.25;5.75;;;;;20.80;64.15;101496.50;6256108;22;45212;-94
2021/06/26 10:07:04;;;;;;;;;8.50;7.50;;;;;20.82;64.39;101503.38;6256482;22;45227;-94
2021/06/26 10:09:53;;;;;;;;;9.50;9.50;;;;;20.83;64.53;101498.94;6256788;22;45302;-94
2021/06/26 10:12:22;;;;;;;;;6.75;6.25;;;;;20.87;63.76;101502.25;6285687;22;46909;-95
2021/06/26 10:14:50;;;;;;;;;8.00;8.00;;;;;20.85;63.86;101496.16;6256747;22;45711;-94
2021/06/26 10:17:16;;;;;;;;;9.00;9.00;;;;;20.88;63.92;101503.94;6256581;22;45263;-94
2021/06/26 10:19:47;;;;;;;;;8.33;7.00;;;;;20.90;63.89;101494.09;6257287;22;45435;-93
2021/06/26 10:22:12;;;;;;;;;9.33;9.00;;;;;20.93;63.52;101488.59;6282864;22;47211;-95
2021/06/26 10:24:42;;;;;;;;;7.25;7.00;;;;;20.95;63.83;101497.28;6255871;22;45620;-94
2021/06/26 10:27:18;;;;;;;;;7.50;7.50;;;;;21.04;63.78;101498.44;6257087;22;45223;-95
2021/06/26 10:29:43;;;;;;;;;8.50;7.75;;;;;21.09;63.67;101491.03;6256458;22;45146;-95
2021/06/26 10:32:14;;;;;;;;;7.33;7.00;;;;;21.18;63.42;101489.56;6281958;22;47990;-94
2021/06/26 10:34:44;;;;;;;;;6.75;6.75;;;;;21.21;62.78;101495.47;6256126;22;45423;-94
2021/06/26 10:37:23;;;;;;;;;7.00;7.00;;;;;21.30;62.95;101490.50;6281766;22;45276;-93
2021/06/26 10:40:03;;;;;;;;;5.67;5.67;;;;;21.34;62.44;101489.34;6256801;22;45330;-94
2021/06/26 10:42:37;;;;;;;;;9.00;8.33;;;;;21.42;62.75;101492.28;6282152;22;47457;-92
2021/06/26 10:45:27;;;;;;;;;6.00;6.00;;;;;21.51;62.59;101485.50;6256023;22;45177;-94
2021/06/26 10:47:52;;;;;;;;;7.50;7.00;;;;;21.63;62.62;101489.09;6252772;22;45410;-94
2021/06/26 10:50:23;;;;;;;;;6.33;4.67;;;;;21.72;62.01;101484.97;6275453;22;45380;-94
2021/06/26 10:52:52;;;;;;;;;5.00;5.00;;;;;21.82;61.91;101477.19;6247883;22;47193;-94
2021/06/26 10:55:31;;;;;;;;;6.00;6.00;;;;;21.91;61.62;101486.25;6245991;22;45888;-94
2021/06/26 10:58:01;;;;;;;;;6.33;6.33;;;;;21.95;60.78;101482.44;6247153;22;45907;-94
2021/06/26 11:00:40;;;;;;;;;4.67;4.00;;;;;21.99;61.36;101479.44;6247337;22;45449;-93
2021/06/26 11:03:24;;;;;;;;;6.33;6.00;;;;;21.99;61.13;101475.97;6245689;22;47381;-94
2021/06/26 11:05:51;;;;;;;;;6.00;6.00;;;;;21.99;60.18;101475.97;6246755;22;45719;-94
2021/06/26 11:08:22;;;;;;;;;7.00;7.00;;;;;21.97;60.18;101481.38;6246320;22;45583;-94
2021/06/26 11:10:55;;;;;;;;;8.00;6.25;;;;;21.97;60.64;101485.81;6247153;22;45361;-94
2021/06/26 11:13:28;;;;;;;;;6.25;6.25;;;;;21.95;60.93;101479.78;6246243;22;45556;-93
2021/06/26 11:16:08;;;;;;;;;9.25;8.75;;;;;21.88;60.55;101477.59;6247304;22;45207;-94
2021/06/26 11:43:50;;;;;;;;;;;;;;;;;;;;;
2021/06/26 11:47:02;;;;;;;;;;;;;;;;;;;;;
2021/06/26 11:53:54;;;;;;;;;8.67;8.67;;;;;22.55;60.70;101450.69;5757019;24;45486;-94
2021/06/26 11:56:42;;;;;;;;;9.33;9.00;;;;;22.59;60.66;101449.47;5658422;25;45482;-94
2021/06/26 11:59:18;;;;;;;;;8.33;8.33;;;;;22.61;60.08;101452.88;5694208;24;45573;-94
2021/06/26 12:01:53;;;;;;;;;8.33;8.33;;;;;22.59;60.47;101452.13;5712902;24;45282;-94
2021/06/26 12:04:38;;;;;;;;;9.00;7.67;;;;;22.55;60.69;101451.50;5730684;24;47341;-93
2021/06/26 12:07:13;;;;;;;;;8.67;8.33;;;;;22.52;60.59;101457.06;5777789;24;45491;-93
2021/06/26 12:13:09;;;;;;;;;8.33;8.33;;;;;22.45;59.94;101458.44;5932336;23;45615;-93
2021/06/26 12:19:11;;;;;;;;;;;;;;;;;;;;;
2021/06/26 12:21:56;;;;;;;;;8.75;8.75;;;;;22.25;60.33;101451.97;5919136;24;68821;-93
2021/06/26 12:46:08;;;;;;;;;;;;;;;;;;;;;
2021/06/26 12:49:22;;;;;;;;;;;;;;;;;;;;;
2021/06/26 12:52:42;;;;;;;;;;;;;;;;;;;;;
2021/06/26 12:55:26;;;;;;;;;11.75;10.50;;;;;22.28;61.13;101426.09;5910448;24;75153;-93
2021/06/26 12:58:08;;;;;;;;;12.25;10.75;;;;;22.28;61.18;101425.25;5867920;24;45564;-93
2021/06/26 13:00:37;;;;;;;;;13.00;10.75;;;;;22.29;61.03;101424.28;5868383;24;45439;-93
2021/06/26 13:03:17;;;;;;;;;11.00;9.75;;;;;22.26;60.88;101422.72;5885745;24;45376;-92
2021/06/26 13:05:50;;;;;;;;;12.75;10.75;;;;;22.25;61.55;101415.72;5884748;24;47224;-93
2021/06/26 13:08:20;;;;;;;;;12.00;12.00;;;;;22.23;61.21;101409.69;5958034;23;45308;-93
2021/06/26 13:10:50;;;;;;;;;12.00;9.67;;;;;22.22;60.86;101405.34;6031613;23;45406;-93
2021/06/26 13:13:31;;;;;;;;;11.00;10.00;;;;;22.21;60.75;101402.81;6031305;23;45388;-92
2021/06/26 13:16:13;;;;;;;;;12.00;11.25;;;;;22.20;61.04;101398.47;6030979;23;47053;-93
2021/06/26 13:18:38;;;;;;;;;10.75;9.75;;;;;22.23;61.39;101404.41;6108637;23;45686;-92
2021/06/26 13:21:12;;;;;;;;;7.50;7.50;;;;;22.27;60.82;101397.06;6148955;23;45463;-93
2021/06/26 13:23:47;;;;;;;;;;;;;;;;;;;;;
2021/06/26 13:29:08;;;;;;;;;8.00;8.00;;;;;22.50;61.45;101384.69;6148427;23;45505;-93
2021/06/26 13:31:39;;;;;;;;;9.75;9.00;;;;;22.58;61.21;101384.13;6237207;22;45453;-93
2021/06/26 13:34:07;;;;;;;;;7.00;7.00;;;;;22.64;60.69;101381.00;6245594;22;45223;-93
2021/06/26 13:36:32;;;;;;;;;6.00;6.00;;;;;22.74;61.14;101378.50;6245549;22;47888;-93
2021/06/26 13:38:59;;;;;;;;;9.00;6.67;;;;;22.83;60.89;101380.41;6244792;22;45429;-93
2021/06/26 13:41:32;;;;;;;;;10.00;8.00;;;;;22.95;60.84;101369.78;6244761;22;45802;-92
2021/06/26 13:43:59;;;;;;;;;9.00;7.33;;;;;23.03;60.42;101362.09;6243060;22;45375;-94
2021/06/26 13:46:25;;;;;;;;;10.33;10.33;;;;;23.12;60.17;101365.81;6246015;22;47930;-92
2021/06/26 13:48:51;;;;;;;;;6.33;6.33;;;;;23.23;59.94;101367.59;6245680;22;45262;-91
2021/06/26 13:51:22;;;;;;;;;6.67;5.67;;;;;23.33;60.02;101362.44;6244368;22;45292;-93
2021/06/26 13:53:48;;;;;;;;;5.67;5.67;;;;;23.42;59.80;101363.50;6245740;22;45334;-92
2021/06/26 13:56:13;;;;;;;;;7.67;7.33;;;;;23.49;59.26;101360.22;6271885;22;47967;-93
2021/06/26 13:58:39;;;;;;;;;6.00;6.00;;;;;23.56;58.26;101351.75;6246350;22;45753;-92
2021/06/26 14:01:04;;;;;;;;;6.00;6.00;;;;;23.59;58.41;101343.53;6245798;22;45352;-91
2021/06/26 14:03:30;;;;;;;;;7.67;7.00;;;;;23.66;58.29;101351.84;6272182;22;45432;-91
2021/06/26 14:05:55;;;;;;;;;8.00;7.00;;;;;23.72;58.84;101343.34;6244814;22;46731;-93
2021/06/26 14:08:26;;;;;;;;;6.00;6.00;;;;;23.78;58.24;101350.00;6272286;22;45285;-91
2021/06/26 14:10:54;;;;;;;;;9.00;7.33;;;;;23.78;58.42;101345.50;6245140;22;45779;-92
2021/06/26 14:13:21;;;;;;;;;7.33;7.33;;;;;23.86;58.19;101352.84;6245920;22;45408;-92
2021/06/26 14:15:47;;;;;;;;;6.00;5.67;;;;;23.87;57.86;101344.75;6245368;22;47554;-92
2021/06/26 14:18:12;;;;;;;;;7.67;6.33;;;;;23.88;57.65;101341.09;6243840;22;45310;-92
2021/06/26 14:20:38;;;;;;;;;7.33;6.67;;;;;23.92;57.65;101344.34;6244443;22;45276;-92
2021/06/26 14:23:04;;;;;;;;;7.33;7.33;;;;;23.95;57.53;101343.25;6246026;22;45409;-91
2021/06/26 14:25:30;;;;;;;;;8.00;7.33;;;;;23.97;57.35;101336.84;6247079;22;46901;-92
2021/06/26 14:27:55;;;;;;;;;9.00;7.33;;;;;24.01;57.62;101326.78;6246957;22;45399;-95
2021/06/26 14:30:21;;;;;;;;;8.33;6.33;;;;;24.06;57.28;101321.91;6247368;22;45253;-93
2021/06/26 14:32:56;;;;;;;;;9.33;8.33;;;;;24.08;56.83;101314.72;6247693;22;45535;-94
2021/06/26 14:35:25;;;;;;;;;7.33;7.00;;;;;24.08;56.85;101313.84;6244609;22;48195;-90
2021/06/26 14:37:50;;;;;;;;;7.00;7.00;;;;;24.10;56.59;101303.94;6245155;22;45749;-90
2021/06/26 14:40:19;;;;;;;;;8.67;8.67;;;;;24.18;56.81;101306.78;6272714;22;45296;-90
2021/06/26 14:42:45;;;;;;;;;7.00;7.00;;;;;24.24;57.00;101305.41;6246427;22;45552;-90
2021/06/26 14:45:11;;;;;;;;;6.00;6.00;;;;;24.25;56.41;101307.13;6244366;22;46324;-90
2021/06/26 14:47:39;;;;;;;;;7.00;6.67;;;;;24.25;56.18;101299.13;6270358;22;46128;-90
2021/06/26 14:50:06;;;;;;;;;6.33;6.33;;;;;24.29;56.33;101290.75;6244367;22;45393;-91
2021/06/26 14:52:31;;;;;;;;;6.33;6.33;;;;;24.27;55.89;101284.75;6246686;22;45407;-90
2021/06/26 14:54:57;;;;;;;;;7.00;6.00;;;;;24.28;55.69;101290.88;6243989;22;46993;-90
2021/06/26 14:57:22;;;;;;;;;8.00;7.67;;;;;24.27;55.82;101290.06;6272661;22;45242;-90
2021/06/26 14:59:48;;;;;;;;;8.00;7.00;;;;;24.24;55.93;101278.81;6271856;22;45234;-90